createdAt,value
2019-01-08T00:01:38.660Z,85.71
2019-01-08T00:03:49.481Z,85.76
2019-01-08T00:06:00.293Z,85.86
2019-01-08T00:08:11.112Z,86.01
2019-01-08T00:10:21.901Z,85.97
2019-01-08T00:12:32.729Z,85.98
2019-01-08T00:14:43.531Z,85.95
2019-01-08T00:16:54.347Z,85.93
2019-01-08T00:19:05.157Z,85.89
2019-01-08T00:21:15.954Z,85.75
2019-01-08T00:23:26.775Z,85.80
2019-01-08T00:25:37.584Z,85.87
2019-01-08T00:27:48.402Z,85.56
2019-01-08T00:29:59.295Z,85.33
2019-01-08T00:32:10.101Z,85.31
2019-01-08T00:34:20.926Z,85.80
2019-01-08T00:36:31.741Z,85.64
2019-01-08T00:38:42.692Z,85.62
2019-01-08T00:40:53.490Z,85.98
2019-01-08T00:43:04.288Z,85.44
2019-01-08T00:45:15.132Z,85.38
2019-01-08T00:47:26.007Z,85.33
2019-01-08T00:49:36.864Z,85.27
2019-01-08T00:51:47.667Z,84.97
2019-01-08T00:53:58.498Z,84.99
2019-01-08T00:56:09.299Z,85.19
2019-01-08T00:58:20.201Z,85.28
2019-01-08T01:00:31.017Z,85.42
2019-01-08T01:02:41.854Z,85.09
2019-01-08T01:04:52.623Z,85.41
2019-01-08T01:07:03.434Z,85.72
2019-01-08T01:09:14.221Z,85.75
2019-01-08T01:11:25.237Z,85.47
2019-01-08T01:13:36.028Z,85.54
2019-01-08T01:15:46.861Z,85.72
2019-01-08T01:17:57.663Z,85.80
2019-01-08T01:20:08.504Z,85.52
2019-01-08T01:22:19.301Z,85.84
2019-01-08T01:24:30.603Z,86.04
2019-01-08T01:26:41.445Z,85.74
2019-01-08T01:28:59.676Z,85.59
2019-01-08T01:31:04.986Z,85.41
2019-01-08T01:33:15.789Z,85.59
2019-01-08T01:35:26.594Z,85.35
2019-01-08T01:37:37.401Z,85.43
2019-01-08T01:39:48.198Z,85.88
2019-01-08T01:41:59.022Z,86.35
2019-01-08T01:44:09.849Z,86.69
2019-01-08T01:46:20.658Z,86.58
2019-01-08T01:48:31.573Z,86.91
2019-01-08T01:50:42.392Z,87.05
2019-01-08T01:52:53.217Z,87.25
2019-01-08T01:58:01.766Z,87.27
2019-01-08T02:00:14.544Z,87.34
2019-01-08T02:02:25.361Z,87.28
2019-01-08T02:04:56.057Z,87.38
2019-01-08T02:07:06.884Z,87.51
2019-01-08T02:09:17.775Z,87.75
2019-01-08T02:11:49.419Z,87.96
2019-01-08T02:14:00.224Z,87.97
2019-01-08T02:16:11.016Z,88.00
2019-01-08T02:18:21.812Z,87.98
2019-01-08T02:20:32.622Z,88.02
2019-01-08T02:34:11.443Z,88.38
2019-01-08T02:36:22.270Z,88.43
2019-01-08T02:38:33.226Z,88.55
2019-01-08T02:40:44.046Z,88.71
2019-01-08T02:42:54.874Z,88.67
2019-01-08T02:45:05.771Z,88.63
2019-01-08T02:47:16.660Z,88.85
2019-01-08T02:49:27.470Z,89.01
2019-01-08T02:51:38.297Z,88.95
2019-01-08T02:53:49.080Z,88.95
2019-01-08T02:55:59.895Z,88.92
2019-01-08T02:58:10.691Z,88.91
2019-01-08T03:00:21.506Z,89.14
2019-01-08T03:02:32.350Z,89.15
2019-01-08T03:04:43.177Z,89.40
2019-01-08T03:06:53.961Z,89.38
2019-01-08T03:09:26.538Z,89.31
2019-01-08T03:11:37.356Z,89.45
2019-01-08T03:13:48.156Z,89.51
2019-01-08T03:15:59.057Z,89.35
2019-01-08T03:18:09.874Z,89.40
2019-01-08T03:20:20.670Z,89.63
2019-01-08T03:22:31.476Z,89.57
2019-01-08T03:24:42.289Z,89.61
2019-01-08T03:26:53.194Z,89.69
2019-01-08T03:29:03.995Z,89.73
2019-01-08T03:31:14.803Z,89.90
2019-01-08T03:33:25.589Z,90.07
2019-01-08T03:35:36.376Z,90.33
2019-01-08T03:37:47.213Z,90.42
2019-01-08T03:39:58.000Z,90.40
2019-01-08T03:42:08.812Z,90.38
2019-01-08T03:44:19.620Z,90.61
2019-01-08T03:46:30.439Z,90.69
2019-01-08T03:48:41.236Z,90.80
2019-01-08T03:50:52.052Z,90.95
2019-01-08T03:53:02.879Z,90.99
2019-01-08T03:55:13.674Z,91.08
2019-01-08T03:57:24.484Z,91.07
2019-01-08T03:59:41.877Z,91.06
2019-01-08T04:01:47.982Z,91.08
2019-01-08T04:03:58.785Z,91.13
2019-01-08T04:06:09.687Z,91.11
2019-01-08T04:08:20.498Z,91.18
2019-01-08T04:10:31.284Z,91.21
2019-01-08T04:12:42.111Z,91.23
2019-01-08T04:14:52.909Z,91.25
2019-01-08T04:17:03.719Z,91.26
2019-01-08T04:19:14.527Z,91.14
2019-01-08T04:21:25.314Z,91.17
2019-01-08T04:23:36.150Z,91.26
2019-01-08T04:25:46.960Z,91.19
2019-01-08T04:27:57.777Z,91.07
2019-01-08T04:30:08.699Z,91.11
2019-01-08T04:32:19.496Z,91.25
2019-01-08T04:34:30.303Z,91.26
2019-01-08T04:36:41.099Z,91.16
2019-01-08T04:38:51.914Z,91.16
2019-01-08T04:41:02.703Z,91.15
2019-01-08T04:43:13.500Z,91.07
2019-01-08T04:45:24.320Z,90.90
2019-01-08T04:47:35.130Z,90.81
2019-01-08T04:49:45.936Z,90.66
2019-01-08T04:51:56.734Z,90.54
2019-01-08T04:54:07.549Z,90.53
2019-01-08T04:56:18.346Z,90.66
2019-01-08T04:58:29.140Z,90.60
2019-01-08T05:00:40.053Z,90.54
2019-01-08T05:02:50.846Z,90.44
2019-01-08T05:05:01.658Z,90.60
2019-01-08T05:09:31.371Z,90.54
2019-01-08T05:11:42.166Z,90.36
2019-01-08T05:13:52.974Z,90.30
2019-01-08T05:16:03.808Z,90.22
2019-01-08T05:18:14.612Z,90.03
2019-01-08T05:20:25.431Z,89.90
2019-01-08T05:22:36.230Z,89.84
2019-01-08T05:24:47.013Z,89.73
2019-01-08T05:26:57.848Z,89.44
2019-01-08T05:29:08.648Z,89.25
2019-01-08T05:31:19.466Z,89.02
2019-01-08T05:33:30.278Z,88.85
2019-01-08T05:35:41.100Z,88.92
2019-01-08T05:37:51.934Z,88.81
2019-01-08T05:40:44.397Z,88.66
2019-01-08T05:42:55.194Z,88.65
2019-01-08T05:45:06.002Z,88.78
2019-01-08T05:47:16.806Z,88.79
2019-01-08T05:49:27.621Z,88.92
2019-01-08T05:51:38.444Z,89.13
2019-01-08T05:53:49.231Z,89.25
2019-01-08T05:56:00.042Z,89.29
2019-01-08T05:58:10.863Z,89.22
2019-01-08T06:00:21.665Z,89.16
2019-01-08T06:02:32.481Z,89.16
2019-01-08T06:04:43.285Z,88.97
2019-01-08T06:06:54.070Z,88.79
2019-01-08T06:09:04.895Z,88.59
2019-01-08T06:11:15.685Z,88.49
2019-01-08T06:13:26.521Z,88.29
2019-01-08T06:15:37.332Z,88.32
2019-01-08T06:17:48.125Z,88.40
2019-01-08T06:19:58.955Z,88.39
2019-01-08T06:22:09.754Z,88.41
2019-01-08T06:24:20.583Z,88.24
2019-01-08T06:26:31.398Z,88.07
2019-01-08T06:28:42.215Z,87.98
2019-01-08T06:30:53.014Z,88.06
2019-01-08T06:33:03.806Z,88.12
2019-01-08T06:35:14.611Z,88.27
2019-01-08T06:37:25.424Z,88.21
2019-01-08T06:39:36.221Z,88.13
2019-01-08T06:41:47.006Z,87.99
2019-01-08T06:43:57.833Z,87.78
2019-01-08T06:46:08.649Z,87.88
2019-01-08T06:48:19.456Z,87.96
2019-01-08T06:50:30.366Z,87.84
2019-01-08T06:52:41.155Z,87.79
2019-01-08T06:54:52.071Z,87.90
2019-01-08T06:57:02.853Z,88.37
2019-01-08T06:59:13.654Z,88.19
2019-01-08T07:01:24.469Z,87.51
2019-01-08T07:03:35.289Z,87.34
2019-01-08T07:05:46.107Z,87.39
2019-01-08T07:07:56.921Z,87.33
2019-01-08T07:10:07.745Z,87.40
2019-01-08T07:12:18.575Z,87.57
2019-01-08T07:14:29.380Z,87.50
2019-01-08T07:16:40.191Z,87.59
2019-01-08T07:18:50.977Z,87.89
2019-01-08T07:21:01.761Z,88.21
2019-01-08T07:23:12.562Z,88.32
2019-01-08T07:25:23.378Z,88.43
2019-01-08T07:27:34.202Z,88.64
2019-01-08T07:29:45.002Z,88.82
2019-01-08T07:31:55.806Z,88.81
2019-01-08T07:34:06.621Z,88.90
2019-01-08T07:36:17.414Z,88.98
2019-01-08T07:38:28.228Z,89.00
2019-01-08T07:40:39.027Z,89.07
2019-01-08T07:42:49.853Z,89.23
2019-01-08T07:45:00.656Z,89.28
2019-01-08T07:47:11.474Z,89.43
2019-01-08T07:49:22.287Z,89.55
2019-01-08T07:51:33.099Z,89.41
2019-01-08T07:53:43.913Z,89.31
2019-01-08T07:55:54.735Z,89.43
2019-01-08T07:58:05.561Z,89.39
2019-01-08T08:00:16.384Z,89.41
2019-01-08T08:02:27.227Z,89.44
2019-01-08T08:04:38.022Z,89.50
2019-01-08T08:06:48.817Z,89.58
2019-01-08T08:08:59.630Z,89.71
2019-01-08T08:11:10.422Z,89.85
2019-01-08T08:13:21.254Z,90.11
2019-01-08T08:15:32.074Z,90.14
2019-01-08T08:17:42.909Z,90.35
2019-01-08T08:19:53.725Z,90.59
2019-01-08T08:22:04.518Z,90.60
2019-01-08T08:24:15.366Z,90.50
2019-01-08T08:26:26.200Z,90.48
2019-01-08T08:28:37.004Z,90.28
2019-01-08T08:30:47.804Z,90.10
2019-01-08T08:32:58.591Z,89.61
2019-01-08T08:35:09.427Z,89.25
2019-01-08T08:37:20.221Z,89.04
2019-01-08T08:39:31.043Z,88.81
2019-01-08T08:41:41.837Z,88.83
2019-01-08T08:43:52.661Z,88.69
2019-01-08T08:46:03.460Z,88.49
2019-01-08T08:48:14.273Z,88.22
2019-01-08T08:50:25.100Z,88.02
2019-01-08T08:52:35.910Z,87.91
2019-01-08T08:54:46.739Z,87.75
2019-01-08T08:56:57.538Z,87.35
2019-01-08T08:59:08.358Z,87.01
2019-01-08T09:01:19.210Z,87.15
2019-01-08T09:03:30.005Z,87.10
2019-01-08T09:05:40.839Z,86.95
2019-01-08T09:07:51.630Z,86.78
2019-01-08T09:10:44.130Z,86.28
2019-01-08T09:12:54.958Z,86.26
2019-01-08T09:15:05.864Z,86.42
2019-01-08T09:17:16.721Z,86.31
2019-01-08T09:19:27.533Z,86.22
2019-01-08T09:21:38.312Z,86.18
2019-01-08T09:23:49.102Z,84.92
2019-01-08T09:25:59.946Z,84.08
2019-01-08T09:28:10.851Z,82.71
2019-01-08T09:30:21.678Z,82.65
2019-01-08T09:32:32.463Z,82.51
2019-01-08T09:34:50.022Z,82.62
2019-01-08T09:37:00.856Z,82.14
2019-01-08T09:39:11.666Z,82.80
2019-01-08T09:41:22.504Z,82.97
2019-01-08T09:43:33.316Z,82.59
2019-01-08T09:45:44.225Z,82.91
2019-01-08T09:47:55.045Z,83.23
2019-01-08T09:50:47.511Z,82.28
2019-01-08T09:52:58.316Z,82.57
2019-01-08T09:55:09.107Z,82.21
2019-01-08T09:57:19.940Z,82.34
2019-01-08T09:59:30.748Z,81.51
2019-01-08T10:01:41.582Z,80.65
2019-01-08T10:03:52.385Z,80.39
2019-01-08T10:06:03.185Z,79.52
2019-01-08T10:08:14.006Z,79.43
2019-01-08T10:10:24.851Z,79.36
2019-01-08T10:12:35.729Z,78.78
2019-01-08T10:14:46.538Z,78.65
2019-01-08T10:16:57.353Z,78.66
2019-01-08T10:19:08.179Z,77.99
2019-01-08T10:21:18.983Z,76.45
2019-01-08T10:23:29.834Z,75.80
2019-01-08T10:25:40.644Z,75.95
2019-01-08T10:27:51.493Z,75.72
2019-01-08T10:30:24.063Z,75.18
2019-01-08T10:32:34.852Z,75.96
2019-01-08T10:34:45.668Z,76.52
2019-01-08T10:36:56.470Z,76.19
2019-01-08T10:39:07.296Z,76.16
2019-01-08T10:41:18.103Z,76.32
2019-01-08T10:43:28.924Z,76.41
2019-01-08T10:45:39.718Z,75.50
2019-01-08T10:47:50.514Z,75.98
2019-01-08T10:50:01.478Z,75.75
2019-01-08T10:52:12.293Z,75.20
2019-01-08T10:54:23.109Z,75.54
2019-01-08T10:56:33.913Z,75.96
2019-01-08T10:58:44.740Z,75.30
2019-01-08T11:00:55.566Z,75.30
2019-01-08T11:03:06.342Z,74.36
2019-01-08T11:05:17.168Z,74.16
2019-01-08T11:07:28.016Z,74.57
2019-01-08T11:09:38.928Z,74.12
2019-01-08T11:11:49.733Z,74.94
2019-01-08T11:14:00.540Z,73.55
2019-01-08T11:16:11.368Z,73.45
2019-01-08T11:18:22.174Z,73.49
2019-01-08T11:20:32.988Z,74.49
2019-01-08T11:22:43.791Z,74.53
2019-01-08T11:24:54.636Z,74.73
2019-01-08T11:27:05.445Z,75.25
2019-01-08T11:29:16.345Z,75.47
2019-01-08T11:31:27.167Z,75.23
2019-01-08T11:33:37.965Z,75.16
2019-01-08T11:35:48.792Z,75.47
2019-01-08T11:37:59.611Z,75.11
2019-01-08T11:40:10.419Z,74.90
2019-01-08T11:42:21.234Z,75.08
2019-01-08T11:44:32.020Z,75.61
2019-01-08T11:46:42.840Z,75.26
2019-01-08T11:48:53.743Z,77.75
2019-01-08T11:51:04.619Z,77.81
2019-01-08T11:53:15.424Z,73.65
2019-01-08T11:55:26.246Z,70.22
2019-01-08T11:57:37.057Z,68.57
2019-01-08T11:59:48.336Z,68.10
2019-01-08T12:04:22.911Z,70.38
2019-01-08T12:06:33.739Z,69.15
2019-01-08T12:08:44.566Z,69.58
2019-01-08T12:10:55.469Z,70.69
2019-01-08T12:13:06.291Z,70.01
2019-01-08T12:15:17.139Z,69.32
2019-01-08T12:17:27.912Z,69.75
2019-01-08T12:19:38.745Z,69.78
2019-01-08T12:21:49.589Z,70.52
2019-01-08T12:24:00.386Z,70.30
2019-01-08T12:26:11.181Z,70.80
2019-01-08T12:28:22.031Z,71.08
2019-01-08T12:30:32.849Z,71.45
2019-01-08T12:32:43.698Z,70.82
2019-01-08T12:34:54.493Z,70.92
2019-01-08T12:37:05.290Z,71.18
2019-01-08T12:39:16.140Z,72.29
2019-01-08T12:41:26.937Z,69.28
2019-01-08T12:43:37.784Z,68.44
2019-01-08T12:45:48.590Z,68.64
2019-01-08T12:47:59.392Z,69.17
2019-01-08T12:50:10.259Z,68.40
2019-01-08T12:52:21.052Z,69.19
2019-01-08T12:54:31.913Z,68.82
2019-01-08T12:56:42.681Z,68.92
2019-01-08T12:58:53.508Z,69.48
2019-01-08T13:01:04.326Z,69.86
2019-01-08T13:03:15.153Z,69.79
2019-01-08T13:05:25.957Z,70.92
2019-01-08T13:07:36.771Z,70.71
2019-01-08T13:09:47.614Z,70.99
2019-01-08T13:11:58.412Z,70.71
2019-01-08T13:14:09.225Z,71.00
2019-01-08T13:16:20.007Z,71.64
2019-01-08T13:18:30.817Z,71.80
2019-01-08T13:20:41.620Z,71.97
2019-01-08T13:22:52.410Z,71.63
2019-01-08T13:27:42.134Z,72.50
2019-01-08T13:29:52.985Z,73.09
2019-01-08T13:32:03.779Z,73.70
2019-01-08T13:34:14.597Z,74.15
2019-01-08T13:36:25.401Z,74.43
2019-01-08T13:38:36.208Z,75.60
2019-01-08T13:40:47.030Z,76.40
2019-01-08T13:42:57.820Z,77.32
2019-01-08T13:45:08.640Z,77.55
2019-01-08T13:47:19.452Z,77.44
2019-01-08T13:49:30.265Z,78.79
2019-01-08T13:51:41.083Z,79.50
2019-01-08T13:53:51.878Z,79.68
2019-01-08T13:56:02.824Z,79.94
2019-01-08T13:58:13.620Z,79.93
2019-01-08T14:00:24.413Z,79.97
2019-01-08T14:02:35.238Z,79.77
2019-01-08T14:04:46.051Z,79.99
2019-01-08T14:06:56.874Z,80.64
2019-01-08T14:09:07.686Z,80.52
2019-01-08T14:11:18.507Z,81.22
2019-01-08T14:13:29.330Z,81.07
2019-01-08T14:15:40.127Z,80.99
2019-01-08T14:17:50.975Z,80.81
2019-01-08T14:20:01.986Z,80.62
2019-01-08T14:22:12.794Z,80.39
2019-01-08T14:24:23.601Z,80.18
2019-01-08T14:26:34.408Z,80.25
2019-01-08T14:28:45.273Z,80.33
2019-01-08T14:30:56.074Z,80.58
2019-01-08T14:33:06.917Z,80.82
2019-01-08T14:35:17.721Z,80.83
2019-01-08T14:37:50.443Z,80.79
2019-01-08T14:42:53.597Z,81.45
2019-01-08T14:45:04.498Z,81.57
2019-01-08T14:47:17.387Z,81.66
2019-01-08T14:49:28.050Z,82.17
2019-01-08T14:51:38.841Z,82.04
2019-01-08T14:53:49.692Z,82.24
2019-01-08T14:56:00.498Z,82.02
2019-01-08T14:58:11.348Z,82.44
2019-01-08T15:00:22.242Z,82.29
2019-01-08T15:02:33.070Z,82.24
2019-01-08T15:04:43.940Z,81.87
2019-01-08T15:06:54.728Z,81.41
2019-01-08T15:09:05.667Z,81.60
2019-01-08T15:11:16.480Z,81.52
2019-01-08T15:13:27.272Z,81.82
2019-01-08T15:15:38.111Z,81.32
2019-01-08T15:17:48.923Z,80.65
2019-01-08T15:19:59.747Z,80.71
2019-01-08T15:22:10.578Z,80.91
2019-01-08T15:24:21.400Z,81.06
2019-01-08T15:26:32.208Z,80.93
2019-01-08T15:28:43.025Z,80.62
2019-01-08T15:30:53.852Z,80.05
2019-01-08T15:33:04.779Z,80.24
2019-01-08T15:35:15.594Z,80.14
2019-01-08T15:37:26.401Z,80.20
2019-01-08T15:39:37.248Z,80.43
2019-01-08T15:41:48.046Z,80.33
2019-01-08T15:43:58.866Z,80.39
2019-01-08T15:46:09.690Z,80.13
2019-01-08T15:48:20.529Z,80.51
2019-01-08T15:50:51.258Z,80.66
2019-01-08T15:53:02.074Z,80.66
2019-01-08T15:55:12.892Z,80.54
2019-01-08T15:57:23.757Z,80.17
2019-01-08T16:00:16.223Z,80.41
2019-01-08T16:02:27.056Z,80.36
2019-01-08T16:04:37.870Z,80.34
2019-01-08T16:06:48.802Z,79.42
2019-01-08T16:08:59.613Z,79.82
2019-01-08T16:11:10.451Z,80.27
2019-01-08T16:13:21.227Z,80.25
2019-01-08T16:15:32.030Z,79.96
2019-01-08T16:17:42.845Z,80.18
2019-01-08T16:19:53.647Z,80.31
2019-01-08T16:22:04.473Z,80.02
2019-01-08T16:24:15.257Z,80.27
2019-01-08T16:26:26.101Z,80.62
2019-01-08T16:28:37.000Z,80.17
2019-01-08T16:30:47.845Z,80.65
2019-01-08T16:32:58.666Z,80.94
2019-01-08T16:35:09.475Z,81.54
2019-01-08T16:37:20.335Z,81.80
2019-01-08T16:39:31.172Z,81.69
2019-01-08T16:41:41.954Z,82.25
2019-01-08T16:43:52.785Z,82.37
2019-01-08T16:46:03.597Z,82.61
2019-01-08T16:48:14.433Z,82.56
2019-01-08T16:50:25.332Z,82.65
2019-01-08T16:52:36.163Z,82.24
2019-01-08T16:54:46.960Z,82.27
2019-01-08T16:56:57.769Z,81.63
2019-01-08T16:59:08.607Z,81.42
2019-01-08T17:01:19.439Z,81.31
2019-01-08T17:03:30.273Z,81.46
2019-01-08T17:05:41.088Z,81.34
2019-01-08T17:07:51.929Z,81.48
2019-01-08T17:10:44.518Z,81.54
2019-01-08T17:12:55.359Z,81.15
2019-01-08T17:15:06.372Z,81.22
2019-01-08T17:17:17.177Z,81.33
2019-01-08T17:19:28.019Z,81.36
2019-01-08T17:21:38.827Z,81.37
2019-01-08T17:23:49.670Z,81.39
2019-01-08T17:26:00.489Z,81.70
2019-01-08T17:28:11.305Z,82.06
2019-01-08T17:30:22.171Z,82.47
2019-01-08T17:32:32.981Z,82.50
2019-01-08T17:34:43.832Z,82.44
2019-01-08T17:36:54.626Z,82.50
2019-01-08T17:39:05.570Z,82.35
2019-01-08T17:41:16.396Z,81.97
2019-01-08T17:43:33.422Z,82.03
2019-01-08T17:45:39.955Z,82.15
2019-01-08T17:47:50.770Z,82.29
2019-01-08T17:50:43.239Z,82.08
2019-01-08T17:52:54.062Z,82.06
2019-01-08T17:55:04.875Z,81.44
2019-01-08T17:57:15.681Z,81.28
2019-01-08T17:59:26.488Z,81.44
2019-01-08T18:02:18.955Z,82.19
2019-01-08T18:04:29.776Z,82.23
2019-01-08T18:06:40.615Z,82.19
2019-01-08T18:08:51.426Z,81.94
2019-01-08T18:11:02.300Z,82.15
2019-01-08T18:13:13.114Z,82.68
2019-01-08T18:15:24.009Z,82.62
2019-01-08T18:17:34.854Z,82.49
2019-01-08T18:19:45.666Z,82.40
2019-01-08T18:21:56.502Z,82.23
2019-01-08T18:24:07.334Z,81.84
2019-01-08T18:26:18.230Z,81.96
2019-01-08T18:28:29.172Z,81.55
2019-01-08T18:30:39.993Z,80.71
2019-01-08T18:32:50.822Z,80.86
2019-01-08T18:35:01.728Z,80.14
2019-01-08T18:37:12.549Z,79.93
2019-01-08T18:39:23.395Z,79.88
2019-01-08T18:41:34.354Z,79.37
2019-01-08T18:43:45.189Z,79.26
2019-01-08T18:45:56.117Z,79.14
2019-01-08T18:48:07.007Z,78.82
2019-01-08T18:50:17.797Z,78.62
2019-01-08T18:52:28.641Z,78.60
2019-01-08T18:54:39.469Z,78.55
2019-01-08T18:56:50.270Z,78.76
2019-01-08T18:59:01.163Z,79.17
2019-01-08T19:01:11.977Z,79.41
2019-01-08T19:03:22.877Z,79.17
2019-01-08T19:05:34.557Z,79.60
2019-01-08T19:07:46.590Z,79.44
2019-01-08T19:10:39.229Z,79.19
2019-01-08T19:12:50.063Z,79.39
2019-01-08T19:15:00.852Z,79.22
2019-01-08T19:17:11.667Z,79.12
2019-01-08T19:19:22.582Z,78.85
2019-01-08T19:21:33.400Z,79.19
2019-01-08T19:23:44.212Z,78.65
2019-01-08T19:25:55.062Z,78.35
2019-01-08T19:30:38.263Z,77.21
2019-01-08T19:32:49.128Z,77.57
2019-01-08T19:34:59.957Z,77.50
2019-01-08T19:37:10.783Z,77.53
2019-01-08T19:39:21.779Z,77.41
2019-01-08T19:41:32.649Z,77.47
2019-01-08T19:43:44.773Z,77.59
2019-01-08T19:45:56.200Z,78.26
2019-01-08T19:48:07.129Z,78.34
2019-01-08T19:52:40.360Z,78.70
2019-01-08T19:54:51.193Z,79.10
2019-01-08T19:57:02.046Z,78.81
2019-01-08T19:59:12.843Z,78.74
2019-01-08T20:01:23.671Z,78.63
2019-01-08T20:03:34.508Z,78.28
2019-01-08T20:05:45.344Z,77.88
2019-01-08T20:07:56.196Z,78.23
2019-01-08T20:10:07.111Z,78.33
2019-01-08T20:12:17.949Z,78.51
2019-01-08T20:14:28.870Z,78.76
2019-01-08T20:16:39.734Z,78.95
2019-01-08T20:18:50.544Z,79.09
2019-01-08T20:21:01.354Z,78.75
2019-01-08T20:23:12.267Z,78.59
2019-01-08T20:25:23.156Z,78.01
2019-01-08T20:27:33.941Z,78.00
2019-01-08T20:29:44.965Z,78.06
2019-01-08T20:31:55.736Z,78.08
2019-01-08T20:34:06.562Z,77.60
2019-01-08T20:36:17.499Z,77.60
2019-01-08T20:38:28.344Z,77.46
2019-01-08T20:40:39.167Z,76.58
2019-01-08T20:42:50.046Z,76.92
2019-01-08T20:45:00.845Z,77.06
2019-01-08T20:47:11.662Z,77.07
2019-01-08T20:49:22.585Z,77.50
2019-01-08T20:51:33.439Z,77.21
2019-01-08T20:53:44.277Z,77.38
2019-01-08T20:55:55.113Z,76.75
2019-01-08T20:58:05.949Z,76.77
2019-01-08T21:00:16.780Z,76.53
2019-01-08T21:02:27.593Z,76.94
2019-01-08T21:04:38.439Z,77.02
2019-01-08T21:06:49.235Z,76.79
2019-01-08T21:09:00.101Z,76.58
2019-01-08T21:11:10.976Z,76.74
2019-01-08T21:13:21.895Z,76.87
2019-01-08T21:15:32.737Z,77.29
2019-01-08T21:17:43.529Z,77.10
2019-01-08T21:19:54.397Z,76.39
2019-01-08T21:22:05.305Z,76.66
2019-01-08T21:24:16.175Z,76.63
2019-01-08T21:26:27.093Z,76.10
2019-01-08T21:28:37.949Z,75.66
2019-01-08T21:30:48.743Z,75.04
2019-01-08T21:32:59.590Z,75.20
2019-01-08T21:35:10.526Z,75.25
2019-01-08T21:37:21.358Z,74.79
2019-01-08T21:39:32.299Z,75.01
2019-01-08T21:41:43.124Z,74.72
2019-01-08T21:44:13.830Z,75.57
2019-01-08T21:46:24.665Z,75.57
2019-01-08T21:48:35.493Z,75.65
2019-01-08T21:50:46.311Z,75.76
2019-01-08T21:52:57.107Z,75.93
2019-01-08T21:55:07.961Z,75.88
2019-01-08T21:57:18.769Z,75.92
2019-01-08T21:59:29.596Z,76.40
2019-01-08T22:01:40.526Z,76.31
2019-01-08T22:03:51.426Z,76.39
2019-01-08T22:06:02.281Z,76.47
2019-01-08T22:08:13.080Z,76.71
2019-01-08T22:10:23.895Z,76.75
2019-01-08T22:12:34.799Z,76.75
2019-01-08T22:14:45.575Z,76.52
2019-01-08T22:16:56.411Z,76.37
2019-01-08T22:19:07.243Z,76.73
2019-01-08T22:21:18.096Z,76.53
2019-01-08T22:23:28.913Z,76.23
2019-01-08T22:25:39.741Z,76.66
2019-01-08T22:27:50.553Z,76.01
2019-01-08T22:30:01.390Z,76.00
2019-01-08T22:32:12.250Z,75.54
2019-01-08T22:34:23.070Z,75.24
2019-01-08T22:36:33.901Z,74.94
2019-01-08T22:38:44.709Z,74.80
2019-01-08T22:40:55.523Z,75.01
2019-01-08T22:43:06.371Z,75.05
2019-01-08T22:45:17.212Z,75.01
2019-01-08T22:47:28.027Z,75.36
2019-01-08T22:49:38.849Z,75.54
2019-01-08T22:51:49.766Z,75.19
2019-01-08T22:54:00.632Z,75.62
2019-01-08T22:56:11.524Z,75.62
2019-01-08T22:58:22.367Z,75.87
2019-01-08T23:03:05.656Z,76.05
2019-01-08T23:05:16.578Z,76.11
2019-01-08T23:07:27.471Z,76.07
2019-01-08T23:09:38.281Z,76.20
2019-01-08T23:11:49.078Z,76.16
2019-01-08T23:13:59.924Z,76.08
2019-01-08T23:16:10.716Z,76.32
2019-01-08T23:18:21.556Z,76.46
2019-01-08T23:20:32.388Z,76.21
2019-01-08T23:22:43.209Z,76.18
2019-01-08T23:24:54.075Z,75.73
2019-01-08T23:27:04.915Z,76.18
2019-01-08T23:29:15.847Z,76.02
2019-01-08T23:31:26.655Z,75.90
2019-01-08T23:33:37.460Z,76.24
2019-01-08T23:35:48.261Z,76.63
2019-01-08T23:37:59.065Z,76.02
2019-01-08T23:40:10.002Z,76.37
2019-01-08T23:42:20.833Z,76.35
2019-01-08T23:44:31.663Z,76.49
2019-01-08T23:46:42.479Z,76.48
2019-01-08T23:48:53.289Z,76.32
2019-01-08T23:51:04.205Z,76.28
2019-01-08T23:53:56.685Z,76.31
2019-01-08T23:56:07.493Z,76.40
2019-01-08T23:58:18.293Z,76.46
